createdAt,value
2018-10-17T00:01:58.404Z,98964.23
2018-10-17T00:04:27.572Z,98959.94
2018-10-17T00:06:56.761Z,98959.94
2018-10-17T00:09:25.924Z,98963.72
2018-10-17T00:11:55.095Z,98961.58
2018-10-17T00:14:24.233Z,98964.19
2018-10-17T00:16:53.456Z,98964.40
2018-10-17T00:19:22.602Z,98965.67
2018-10-17T00:21:51.750Z,98962.84
2018-10-17T00:24:20.940Z,98965.81
2018-10-17T00:26:50.309Z,98968.62
2018-10-17T00:29:19.460Z,98965.18
2018-10-17T00:31:48.641Z,98966.21
2018-10-17T00:34:17.770Z,98970.50
2018-10-17T00:36:47.056Z,98962.73
2018-10-17T00:39:16.194Z,98970.36
2018-10-17T00:41:45.363Z,98967.37
2018-10-17T00:44:14.513Z,98967.22
2018-10-17T00:46:43.677Z,98969.71
2018-10-17T00:49:12.946Z,98972.25
2018-10-17T00:51:42.033Z,98972.41
2018-10-17T00:54:11.246Z,98972.25
2018-10-17T00:56:40.498Z,98966.94
2018-10-17T00:59:11.852Z,98966.17
2018-10-17T01:01:40.992Z,98971.04
2018-10-17T01:04:10.349Z,98971.91
2018-10-17T01:06:40.051Z,98966.78
2018-10-17T01:09:11.794Z,98967.50
2018-10-17T01:11:41.301Z,98964.72
2018-10-17T01:14:10.814Z,98967.57
2018-10-17T01:16:39.962Z,98962.40
2018-10-17T01:19:09.311Z,98961.38
2018-10-17T01:21:38.399Z,98960.38
2018-10-17T01:24:07.549Z,98960.97
2018-10-17T01:26:36.705Z,98964.02
2018-10-17T01:29:06.208Z,98958.06
2018-10-17T01:31:35.355Z,98956.54
2018-10-17T01:34:04.640Z,98955.47
2018-10-17T01:36:33.817Z,98944.40
2018-10-17T01:39:03.799Z,98950.73
2018-10-17T01:41:32.932Z,98948.59
2018-10-17T01:44:02.089Z,98944.67
2018-10-17T01:46:31.277Z,98944.83
2018-10-17T01:49:00.485Z,98947.55
2018-10-17T01:51:29.863Z,98948.95
2018-10-17T01:53:59.042Z,98952.48
2018-10-17T01:56:28.181Z,98953.52
2018-10-17T01:58:57.343Z,98943.45
2018-10-17T02:01:26.535Z,98946.56
2018-10-17T02:03:55.653Z,98947.01
2018-10-17T02:06:24.807Z,98952.88
2018-10-17T02:08:53.946Z,98949.27
2018-10-17T02:11:23.118Z,98953.02
2018-10-17T02:13:52.250Z,98955.37
2018-10-17T02:16:21.406Z,98958.33
2018-10-17T02:18:50.541Z,98950.94
2018-10-17T02:21:19.673Z,98953.53
2018-10-17T02:23:48.830Z,98952.75
2018-10-17T02:26:17.974Z,98949.42
2018-10-17T02:28:47.168Z,98953.34
2018-10-17T02:31:16.404Z,98952.11
2018-10-17T02:33:45.460Z,98951.23
2018-10-17T02:36:14.634Z,98953.00
2018-10-17T02:38:43.809Z,98952.56
2018-10-17T02:41:13.557Z,98959.20
2018-10-17T02:43:42.605Z,98955.52
2018-10-17T02:46:11.785Z,98959.81
2018-10-17T02:48:40.964Z,98958.76
2018-10-17T02:51:10.155Z,98953.45
2018-10-17T02:53:39.306Z,98959.20
2018-10-17T02:56:08.454Z,98961.13
2018-10-17T02:58:37.581Z,98962.02
2018-10-17T03:01:06.857Z,98953.46
2018-10-17T03:03:36.074Z,98962.52
2018-10-17T03:06:05.379Z,98960.48
2018-10-17T03:08:34.582Z,98966.30
2018-10-17T03:11:03.761Z,98961.19
2018-10-17T03:13:32.866Z,98964.91
2018-10-17T03:16:02.019Z,98956.86
2018-10-17T03:18:31.171Z,98966.16
2018-10-17T03:21:00.312Z,98971.67
2018-10-17T03:23:29.531Z,98969.45
2018-10-17T03:25:58.814Z,98975.20
2018-10-17T03:28:28.554Z,98976.02
2018-10-17T03:30:58.006Z,98975.81
2018-10-17T03:33:27.053Z,98981.91
2018-10-17T03:35:56.264Z,98973.36
2018-10-17T03:38:25.394Z,98971.02
2018-10-17T03:40:54.609Z,98975.43
2018-10-17T03:43:23.715Z,98969.08
2018-10-17T03:45:52.899Z,98974.09
2018-10-17T03:48:22.050Z,98974.09
2018-10-17T03:50:51.228Z,98982.36
2018-10-17T03:53:20.465Z,98981.47
2018-10-17T03:55:49.633Z,98984.12
2018-10-17T03:58:18.809Z,98982.48
2018-10-17T04:00:47.969Z,98978.50
2018-10-17T04:03:17.143Z,98984.55
2018-10-17T04:05:46.338Z,98984.79
2018-10-17T04:08:15.472Z,98995.22
2018-10-17T04:10:44.694Z,98986.91
2018-10-17T04:13:13.951Z,98989.56
2018-10-17T04:15:43.079Z,98991.91
2018-10-17T04:18:12.258Z,98997.95
2018-10-17T04:20:41.487Z,98992.03
2018-10-17T04:23:10.686Z,98995.42
2018-10-17T04:25:39.826Z,98999.12
2018-10-17T04:28:08.991Z,98997.49
2018-10-17T04:30:38.161Z,98996.36
2018-10-17T04:33:07.562Z,98993.86
2018-10-17T04:35:36.812Z,98996.55
2018-10-17T04:38:06.056Z,98995.97
2018-10-17T04:40:35.210Z,98993.89
2018-10-17T04:43:04.447Z,98997.88
2018-10-17T04:45:33.603Z,98989.61
2018-10-17T04:48:02.764Z,98993.44
2018-10-17T04:50:31.947Z,98998.16
2018-10-17T04:53:01.151Z,99003.27
2018-10-17T04:55:30.329Z,99002.44
2018-10-17T04:57:59.498Z,99005.09
2018-10-17T05:00:28.907Z,99006.11
2018-10-17T05:02:58.195Z,99003.61
2018-10-17T05:05:27.347Z,99006.38
2018-10-17T05:07:56.561Z,99015.08
2018-10-17T05:10:25.738Z,99012.42
2018-10-17T05:12:54.979Z,99013.16
2018-10-17T05:15:24.242Z,99011.69
2018-10-17T05:17:53.856Z,99015.08
2018-10-17T05:20:23.009Z,99012.93
2018-10-17T05:22:52.212Z,99013.75
2018-10-17T05:25:21.408Z,99014.77
2018-10-17T05:27:50.554Z,99009.52
2018-10-17T05:30:19.797Z,99022.13
2018-10-17T05:32:49.099Z,99023.15
2018-10-17T05:35:18.281Z,99021.70
2018-10-17T05:37:47.741Z,99025.84
2018-10-17T05:40:16.790Z,99026.02
2018-10-17T05:42:45.964Z,99020.51
2018-10-17T05:45:15.399Z,99031.20
2018-10-17T05:47:44.581Z,99026.83
2018-10-17T05:50:13.752Z,99033.46
2018-10-17T05:52:42.934Z,99027.65
2018-10-17T05:55:12.200Z,99038.85
2018-10-17T05:57:41.333Z,99038.93
2018-10-17T06:00:10.575Z,99040.34
2018-10-17T06:02:39.818Z,99040.14
2018-10-17T06:05:09.572Z,99044.62
2018-10-17T06:07:38.740Z,99045.05
2018-10-17T06:10:09.297Z,99040.77
2018-10-17T06:12:38.382Z,99042.41
2018-10-17T06:15:07.922Z,99046.89
2018-10-17T06:17:37.086Z,99046.81
2018-10-17T06:20:06.860Z,99044.47
2018-10-17T06:22:36.096Z,99050.48
2018-10-17T06:25:05.936Z,99049.27
2018-10-17T06:27:35.130Z,99055.75
2018-10-17T06:30:04.408Z,99057.86
2018-10-17T06:32:33.604Z,99058.84
2018-10-17T06:35:02.841Z,99060.41
2018-10-17T06:37:32.044Z,99056.36
2018-10-17T06:40:01.210Z,99059.48
2018-10-17T06:42:30.386Z,99052.28
2018-10-17T06:44:59.736Z,99056.88
2018-10-17T06:47:28.925Z,99057.70
2018-10-17T06:49:58.072Z,99058.03
2018-10-17T06:52:27.300Z,99060.67
2018-10-17T06:54:56.601Z,99050.30
2018-10-17T06:57:25.722Z,99060.70
2018-10-17T06:59:54.885Z,99056.79
2018-10-17T07:02:24.142Z,99056.87
2018-10-17T07:04:53.296Z,99053.54
2018-10-17T07:07:22.502Z,99059.95
2018-10-17T07:09:52.068Z,99056.16
2018-10-17T07:12:21.287Z,99051.38
2018-10-17T07:14:50.474Z,99056.67
2018-10-17T07:17:19.684Z,99056.25
2018-10-17T07:19:48.908Z,99057.89
2018-10-17T07:22:18.133Z,99057.09
2018-10-17T07:24:47.273Z,99051.62
2018-10-17T07:27:16.491Z,99054.98
2018-10-17T07:29:45.993Z,99048.95
2018-10-17T07:32:15.103Z,99044.44
2018-10-17T07:34:44.326Z,99048.64
2018-10-17T07:37:13.577Z,99050.42
2018-10-17T07:39:42.858Z,99049.34
2018-10-17T07:42:12.139Z,99055.23
2018-10-17T07:44:41.274Z,99048.77
2018-10-17T07:47:10.548Z,99049.81
2018-10-17T07:49:39.686Z,99048.63
2018-10-17T07:52:08.916Z,99050.66
2018-10-17T07:54:38.158Z,99046.86
2018-10-17T07:57:07.939Z,99046.73
2018-10-17T07:59:37.204Z,99048.53
2018-10-17T08:02:06.413Z,99049.36
2018-10-17T08:04:35.640Z,99042.38
2018-10-17T08:07:05.595Z,99047.67
2018-10-17T08:09:34.945Z,99039.36
2018-10-17T08:12:04.804Z,99044.39
2018-10-17T08:14:34.868Z,99040.73
2018-10-17T08:17:04.238Z,99033.56
2018-10-17T08:19:33.465Z,99038.16
2018-10-17T08:22:02.647Z,99027.98
2018-10-17T08:24:31.951Z,99033.31
2018-10-17T08:27:01.261Z,99036.16
2018-10-17T08:29:30.483Z,99031.51
2018-10-17T08:31:59.774Z,99031.84
2018-10-17T08:34:29.000Z,99033.75
2018-10-17T08:36:58.380Z,99034.62
2018-10-17T08:39:27.466Z,99026.63
2018-10-17T08:41:56.646Z,99033.58
2018-10-17T08:44:25.884Z,99033.09
2018-10-17T08:46:55.158Z,99030.12
2018-10-17T08:49:24.404Z,99030.12
2018-10-17T08:51:53.614Z,99027.84
2018-10-17T08:54:22.986Z,99024.23
2018-10-17T08:56:52.194Z,99021.53
2018-10-17T08:59:21.435Z,99019.41
2018-10-17T09:01:50.785Z,99021.03
2018-10-17T09:04:19.989Z,99023.92
2018-10-17T09:06:49.276Z,99027.77
2018-10-17T09:09:18.574Z,99030.53
2018-10-17T09:11:47.755Z,99021.45
2018-10-17T09:14:17.030Z,99028.19
2018-10-17T09:16:46.713Z,99031.42
2018-10-17T09:19:15.865Z,99020.67
2018-10-17T09:21:45.733Z,99024.97
2018-10-17T09:24:14.862Z,99020.94
2018-10-17T09:26:43.955Z,99017.69
2018-10-17T09:29:13.203Z,99018.22
2018-10-17T09:31:42.512Z,99010.38
2018-10-17T09:34:11.754Z,99001.75
2018-10-17T09:36:40.892Z,99003.84
2018-10-17T09:39:11.641Z,99000.33
2018-10-17T09:41:41.055Z,98994.70
2018-10-17T09:44:10.204Z,98989.95
2018-10-17T09:46:39.490Z,98986.73
2018-10-17T09:49:09.030Z,98988.03
2018-10-17T09:51:38.191Z,98988.95
2018-10-17T09:54:07.549Z,98990.34
2018-10-17T09:56:36.742Z,98984.84
2018-10-17T09:59:05.924Z,98984.61
2018-10-17T10:01:40.465Z,98983.59
2018-10-17T10:04:09.748Z,98973.98
2018-10-17T10:06:39.053Z,98974.80
2018-10-17T10:09:09.505Z,98972.42
2018-10-17T10:11:39.170Z,98970.19
2018-10-17T10:14:08.510Z,98967.63
2018-10-17T10:16:38.043Z,98967.61
2018-10-17T10:19:07.732Z,98959.63
2018-10-17T10:21:37.609Z,98946.25
2018-10-17T10:24:07.029Z,98954.09
2018-10-17T10:26:36.800Z,98951.02
2018-10-17T10:29:06.202Z,98939.05
2018-10-17T10:31:35.768Z,98939.48
2018-10-17T10:34:05.627Z,98933.14
2018-10-17T10:36:35.101Z,98928.95
2018-10-17T10:39:06.882Z,98927.98
2018-10-17T10:41:37.023Z,98923.81
2018-10-17T10:44:06.678Z,98925.25
2018-10-17T10:46:36.280Z,98915.80
2018-10-17T10:49:06.252Z,98910.83
2018-10-17T10:51:36.149Z,98911.14
2018-10-17T10:54:05.750Z,98909.89
2018-10-17T10:56:35.026Z,98907.89
2018-10-17T10:59:04.437Z,98903.27
2018-10-17T11:01:34.222Z,98902.06
2018-10-17T11:04:04.187Z,98897.78
2018-10-17T11:06:33.579Z,98897.89
2018-10-17T11:09:03.793Z,98900.66
2018-10-17T11:11:33.033Z,98891.17
2018-10-17T11:14:02.418Z,98891.84
2018-10-17T11:16:31.548Z,98885.30
2018-10-17T11:19:02.201Z,98883.91
2018-10-17T11:21:31.652Z,98882.87
2018-10-17T11:24:02.787Z,98875.70
2018-10-17T11:26:31.935Z,98874.07
2018-10-17T11:29:01.172Z,98870.83
2018-10-17T11:31:30.719Z,98865.63
2018-10-17T11:33:59.796Z,98867.48
2018-10-17T11:36:28.946Z,98863.58
2018-10-17T11:38:58.261Z,98866.34
2018-10-17T11:41:27.506Z,98864.76
2018-10-17T11:43:56.651Z,98863.95
2018-10-17T11:46:26.284Z,98861.57
2018-10-17T11:48:55.453Z,98864.59
2018-10-17T11:51:24.644Z,98857.28
2018-10-17T11:53:53.958Z,98852.96
2018-10-17T11:56:23.192Z,98853.77
2018-10-17T11:58:52.497Z,98860.54
2018-10-17T12:01:21.718Z,98848.04
2018-10-17T12:03:51.699Z,98843.77
2018-10-17T12:06:20.781Z,98823.94
2018-10-17T12:08:49.953Z,98843.37
2018-10-17T12:11:19.193Z,98834.08
2018-10-17T12:13:48.428Z,98829.94
2018-10-17T12:16:17.621Z,98834.95
2018-10-17T12:18:46.781Z,98833.56
2018-10-17T12:21:15.998Z,98829.88
2018-10-17T12:23:45.251Z,98829.73
2018-10-17T12:26:14.417Z,98827.20
2018-10-17T12:28:43.632Z,98833.66
2018-10-17T12:31:12.855Z,98829.10
2018-10-17T12:33:42.858Z,98832.19
2018-10-17T12:36:12.044Z,98826.02
2018-10-17T12:38:41.243Z,98822.77
2018-10-17T12:41:10.663Z,98822.56
2018-10-17T12:43:41.724Z,98817.75
2018-10-17T12:46:10.901Z,98816.73
2018-10-17T12:48:40.198Z,98820.34
2018-10-17T12:51:09.517Z,98809.02
2018-10-17T12:53:38.778Z,98812.53
2018-10-17T12:56:08.015Z,98817.03
2018-10-17T12:58:37.274Z,98814.70
2018-10-17T13:01:09.784Z,98810.75
2018-10-17T13:03:39.033Z,98808.91
2018-10-17T13:06:08.393Z,98810.31
2018-10-17T13:08:37.742Z,98815.12
2018-10-17T13:11:07.283Z,98810.80
2018-10-17T13:13:36.635Z,98807.12
2018-10-17T13:16:05.862Z,98802.51
2018-10-17T13:18:35.779Z,98798.14
2018-10-17T13:21:05.030Z,98804.25
2018-10-17T13:23:34.246Z,98803.77
2018-10-17T13:26:03.526Z,98801.05
2018-10-17T13:28:32.681Z,98803.29
2018-10-17T13:31:01.880Z,98797.88
2018-10-17T13:33:31.050Z,98795.47
2018-10-17T13:36:00.263Z,98789.71
2018-10-17T13:38:29.426Z,98789.09
2018-10-17T13:40:58.617Z,98782.95
2018-10-17T13:43:27.779Z,98787.72
2018-10-17T13:45:56.960Z,98786.74
2018-10-17T13:48:26.124Z,98788.30
2018-10-17T13:50:55.328Z,98787.78
2018-10-17T13:53:24.468Z,98783.23
2018-10-17T13:55:53.655Z,98784.30
2018-10-17T13:58:22.933Z,98787.73
2018-10-17T14:00:52.098Z,98782.22
2018-10-17T14:03:21.730Z,98785.86
2018-10-17T14:05:50.871Z,98779.75
2018-10-17T14:08:20.051Z,98786.52
2018-10-17T14:10:49.271Z,98784.88
2018-10-17T14:13:18.481Z,98790.20
2018-10-17T14:15:47.642Z,98787.12
2018-10-17T14:18:16.911Z,98792.00
2018-10-17T14:20:45.993Z,98790.59
2018-10-17T14:23:15.231Z,98791.80
2018-10-17T14:25:44.410Z,98790.99
2018-10-17T14:28:13.608Z,98784.88
2018-10-17T14:30:42.763Z,98788.39
2018-10-17T14:33:11.976Z,98783.09
2018-10-17T14:35:41.137Z,98783.69
2018-10-17T14:38:10.341Z,98786.55
2018-10-17T14:40:39.527Z,98781.89
2018-10-17T14:43:08.874Z,98781.24
2018-10-17T14:45:38.075Z,98782.59
2018-10-17T14:48:07.447Z,98780.27
2018-10-17T14:50:36.494Z,98787.09
2018-10-17T14:53:06.180Z,98785.14
2018-10-17T14:55:35.307Z,98781.81
2018-10-17T14:58:04.479Z,98779.20
2018-10-17T15:00:33.655Z,98784.92
2018-10-17T15:03:02.967Z,98776.70
2018-10-17T15:05:32.058Z,98783.97
2018-10-17T15:08:01.519Z,98786.05
2018-10-17T15:10:30.846Z,98783.58
2018-10-17T15:12:59.859Z,98781.50
2018-10-17T15:15:29.014Z,98784.97
2018-10-17T15:17:58.273Z,98791.84
2018-10-17T15:20:27.458Z,98786.22
2018-10-17T15:22:56.914Z,98790.09
2018-10-17T15:25:26.061Z,98785.45
2018-10-17T15:27:55.242Z,98788.55
2018-10-17T15:30:24.629Z,98781.30
2018-10-17T15:32:53.930Z,98783.50
2018-10-17T15:35:23.068Z,98780.98
2018-10-17T15:37:52.245Z,98785.68
2018-10-17T15:40:21.416Z,98776.38
2018-10-17T15:42:50.591Z,98780.90
2018-10-17T15:45:19.826Z,98785.76
2018-10-17T15:47:48.994Z,98780.54
2018-10-17T15:50:18.145Z,98786.55
2018-10-17T15:52:47.359Z,98780.11
2018-10-17T15:55:16.553Z,98779.21
2018-10-17T15:57:45.711Z,98785.58
2018-10-17T16:00:15.091Z,98785.44
2018-10-17T16:02:44.317Z,98787.41
2018-10-17T16:05:13.526Z,98794.00
2018-10-17T16:07:42.750Z,98796.27
2018-10-17T16:10:11.905Z,98791.52
2018-10-17T16:12:41.231Z,98790.71
2018-10-17T16:15:10.935Z,98792.67
2018-10-17T16:17:40.186Z,98793.51
2018-10-17T16:20:11.172Z,98798.95
2018-10-17T16:22:40.582Z,98795.02
2018-10-17T16:25:10.122Z,98794.55
2018-10-17T16:27:39.314Z,98792.18
2018-10-17T16:30:10.623Z,98798.19
2018-10-17T16:32:39.817Z,98798.24
2018-10-17T16:35:09.617Z,98800.42
2018-10-17T16:37:39.344Z,98795.91
2018-10-17T16:40:09.746Z,98802.67
2018-10-17T16:42:39.015Z,98808.95
2018-10-17T16:45:09.615Z,98785.91
2018-10-17T16:47:38.845Z,98809.05
2018-10-17T16:50:08.093Z,98810.95
2018-10-17T16:52:37.221Z,98817.15
2018-10-17T16:55:07.765Z,98816.92
2018-10-17T16:57:37.222Z,98815.08
2018-10-17T17:00:08.094Z,98822.88
2018-10-17T17:02:37.328Z,98821.27
2018-10-17T17:05:11.081Z,98827.97
2018-10-17T17:07:40.541Z,98816.95
2018-10-17T17:10:10.595Z,98819.89
2018-10-17T17:12:39.887Z,98820.46
2018-10-17T17:15:09.511Z,98828.77
2018-10-17T17:17:38.734Z,98829.31
2018-10-17T17:20:09.773Z,98836.28
2018-10-17T17:22:39.511Z,98831.20
2018-10-17T17:25:08.809Z,98835.77
2018-10-17T17:27:38.262Z,98835.23
2018-10-17T17:30:12.257Z,98832.80
2018-10-17T17:32:41.379Z,98837.36
2018-10-17T17:35:10.667Z,98827.43
2018-10-17T17:37:39.828Z,98831.99
2018-10-17T17:40:10.706Z,98840.30
2018-10-17T17:42:39.852Z,98833.05
2018-10-17T17:45:09.678Z,98829.27
2018-10-17T17:47:38.991Z,98832.23
2018-10-17T17:50:08.912Z,98828.45
2018-10-17T17:52:38.721Z,98828.45
2018-10-17T17:55:09.123Z,98830.59
2018-10-17T17:57:38.529Z,98826.80
2018-10-17T18:00:08.251Z,98829.73
2018-10-17T18:02:40.484Z,98829.95
2018-10-17T18:05:09.875Z,98827.53
2018-10-17T18:07:42.270Z,98826.92
2018-10-17T18:10:11.498Z,98833.38
2018-10-17T18:12:40.598Z,98835.22
2018-10-17T18:15:09.867Z,98833.01
2018-10-17T18:17:39.080Z,98832.68
2018-10-17T18:20:08.422Z,98829.42
2018-10-17T18:22:38.144Z,98833.12
2018-10-17T18:25:07.757Z,98836.30
2018-10-17T18:27:37.315Z,98837.33
2018-10-17T18:30:06.783Z,98836.77
2018-10-17T18:32:36.006Z,98840.45
2018-10-17T18:35:06.187Z,98840.95
2018-10-17T18:37:35.437Z,98839.79
2018-10-17T18:40:05.170Z,98844.59
2018-10-17T18:42:34.306Z,98831.11
2018-10-17T18:45:03.780Z,98845.61
2018-10-17T18:47:32.947Z,98844.23
2018-10-17T18:50:02.243Z,98838.56
2018-10-17T18:52:31.462Z,98842.28
2018-10-17T18:55:00.690Z,98842.25
2018-10-17T18:57:29.864Z,98844.38
2018-10-17T18:59:59.109Z,98849.73
2018-10-17T19:02:28.293Z,98855.08
2018-10-17T19:04:57.481Z,98859.58
2018-10-17T19:07:26.659Z,98861.40
2018-10-17T19:09:55.874Z,98862.33
2018-10-17T19:12:25.026Z,98858.27
2018-10-17T19:14:54.196Z,98860.84
2018-10-17T19:17:23.369Z,98861.88
2018-10-17T19:19:52.614Z,98859.44
2018-10-17T19:22:21.794Z,98865.28
2018-10-17T19:24:51.169Z,98866.62
2018-10-17T19:27:20.176Z,98866.86
2018-10-17T19:29:50.924Z,98867.36
2018-10-17T19:32:20.251Z,98867.33
2018-10-17T19:34:49.668Z,98867.51
2018-10-17T19:37:19.157Z,98867.42
2018-10-17T19:39:48.699Z,98868.73
2018-10-17T19:42:18.577Z,98869.69
2018-10-17T19:44:47.775Z,98876.02
2018-10-17T19:47:17.032Z,98870.59
2018-10-17T19:49:46.206Z,98871.14
2018-10-17T19:52:15.379Z,98866.64
2018-10-17T19:54:44.511Z,98869.05
2018-10-17T19:57:14.213Z,98869.86
2018-10-17T19:59:43.538Z,98868.20
2018-10-17T20:02:12.723Z,98871.95
2018-10-17T20:04:41.967Z,98866.84
2018-10-17T20:07:11.131Z,98869.22
2018-10-17T20:09:40.300Z,98861.93
2018-10-17T20:12:09.517Z,98864.89
2018-10-17T20:14:38.737Z,98870.44
2018-10-17T20:17:08.205Z,98874.18
2018-10-17T20:19:37.360Z,98866.72
2018-10-17T20:22:09.156Z,98862.48
2018-10-17T20:24:39.640Z,98864.60
2018-10-17T20:27:09.773Z,98867.02
2018-10-17T20:29:39.327Z,98862.94
2018-10-17T20:32:09.513Z,98872.36
2018-10-17T20:34:38.962Z,98876.30
2018-10-17T20:37:08.404Z,98873.59
2018-10-17T20:39:37.579Z,98871.48
2018-10-17T20:42:07.133Z,98872.98
2018-10-17T20:44:36.352Z,98872.66
2018-10-17T20:47:06.036Z,98871.84
2018-10-17T20:49:35.215Z,98875.58
2018-10-17T20:52:04.525Z,98870.08
2018-10-17T20:54:33.790Z,98870.56
2018-10-17T20:57:02.986Z,98875.88
2018-10-17T20:59:32.154Z,98870.98
2018-10-17T21:02:01.490Z,98881.10
2018-10-17T21:04:30.504Z,98871.98
2018-10-17T21:06:59.701Z,98876.73
2018-10-17T21:09:28.867Z,98882.16
2018-10-17T21:11:58.008Z,98879.70
2018-10-17T21:14:27.206Z,98875.03
2018-10-17T21:16:56.359Z,98875.84
2018-10-17T21:19:25.526Z,98866.59
2018-10-17T21:21:54.712Z,98876.22
2018-10-17T21:24:23.922Z,98867.88
2018-10-17T21:26:53.443Z,98875.55
2018-10-17T21:29:22.580Z,98870.64
2018-10-17T21:31:51.806Z,98867.72
2018-10-17T21:34:20.911Z,98867.68
2018-10-17T21:36:50.159Z,98867.39
2018-10-17T21:39:19.322Z,98860.16
2018-10-17T21:41:48.523Z,98853.45
2018-10-17T21:44:17.684Z,98855.27
2018-10-17T21:46:46.866Z,98855.41
2018-10-17T21:49:15.986Z,98861.77
2018-10-17T21:51:45.175Z,98859.32
2018-10-17T21:54:14.334Z,98853.13
2018-10-17T21:56:43.875Z,98857.91
2018-10-17T21:59:13.052Z,98862.67
2018-10-17T22:01:42.286Z,98857.86
2018-10-17T22:04:11.426Z,98855.63
2018-10-17T22:06:40.622Z,98857.34
2018-10-17T22:09:10.601Z,98843.20
2018-10-17T22:11:39.849Z,98856.53
2018-10-17T22:14:09.108Z,98852.19
2018-10-17T22:16:43.419Z,98856.19
2018-10-17T22:19:12.949Z,98856.19
2018-10-17T22:21:41.757Z,98854.59
2018-10-17T22:24:11.026Z,98857.72
2018-10-17T22:26:40.178Z,98857.94
2018-10-17T22:29:09.445Z,98861.20
2018-10-17T22:31:38.611Z,98862.28
2018-10-17T22:34:07.831Z,98864.18
2018-10-17T22:36:37.014Z,98861.25
2018-10-17T22:39:09.685Z,98864.09
2018-10-17T22:41:39.392Z,98860.86
2018-10-17T22:44:08.677Z,98860.86
2018-10-17T22:46:37.794Z,98857.84
2018-10-17T22:49:07.961Z,98857.23
2018-10-17T22:51:37.631Z,98855.34
2018-10-17T22:54:07.446Z,98853.31
2018-10-17T22:56:37.170Z,98850.06
2018-10-17T22:59:06.674Z,98849.56
2018-10-17T23:01:36.499Z,98851.92
2018-10-17T23:04:07.009Z,98843.84
2018-10-17T23:06:36.204Z,98853.55
2018-10-17T23:09:09.512Z,98851.76
2018-10-17T23:11:39.764Z,98855.55
2018-10-17T23:14:09.666Z,98855.04
2018-10-17T23:16:38.893Z,98856.10
2018-10-17T23:19:08.780Z,98852.89
2018-10-17T23:21:37.987Z,98855.41
2018-10-17T23:24:07.208Z,98856.69
2018-10-17T23:26:36.345Z,98850.03
2018-10-17T23:29:05.981Z,98855.35
2018-10-17T23:31:35.145Z,98854.02
2018-10-17T23:34:04.314Z,98854.27
2018-10-17T23:36:33.457Z,98855.25
2018-10-17T23:39:02.698Z,98860.58
2018-10-17T23:41:31.849Z,98855.09
2018-10-17T23:44:01.020Z,98854.28
2018-10-17T23:46:30.199Z,98857.20
2018-10-17T23:48:59.382Z,98849.77
2018-10-17T23:51:28.552Z,98848.91
2018-10-17T23:53:57.742Z,98848.77
2018-10-17T23:56:26.917Z,98846.19
2018-10-17T23:58:56.066Z,98852.14
